Time,TemperatureF,DewpointF,PressureIn,WindDirection,WindDirectionDegrees,WindSpeedMPH,WindSpeedGustMPH,Humidity,HourlyPrecipIn,Conditions,Clouds,dailyrainin,SoftwareType,DateUTC
2013-02-01 00:02:00,14.0,3.0,30.38,SE,130,3.0,6.0,62,0.00,,,0.00,,2013-02-01 06:02:00,
2013-02-01 00:11:00,14.0,3.0,30.38,SE,130,3.0,6.0,62,0.00,,,0.00,,2013-02-01 06:11:00,
2013-02-01 00:22:00,14.0,3.0,30.37,SE,128,3.0,7.0,62,0.00,,,0.00,,2013-02-01 06:22:00,
2013-02-01 00:32:00,14.0,4.0,30.36,SE,145,2.0,7.0,63,0.00,,,0.00,,2013-02-01 06:32:00,
2013-02-01 00:42:00,14.0,4.0,30.36,SE,145,2.0,7.0,63,0.00,,,0.00,,2013-02-01 06:42:00,
2013-02-01 00:52:00,14.0,4.0,30.37,SE,130,1.0,6.0,64,0.00,,,0.00,,2013-02-01 06:52:00,
2013-02-01 01:02:00,14.0,4.0,30.36,SE,130,2.0,4.0,65,0.00,,,0.00,,2013-02-01 07:02:00,
2013-02-01 01:12:00,14.0,4.0,30.36,SE,130,2.0,4.0,65,0.00,,,0.00,,2013-02-01 07:12:00,
2013-02-01 01:22:00,14.0,4.0,30.36,SE,130,2.0,4.0,65,0.00,,,0.00,,2013-02-01 07:22:00,
2013-02-01 01:32:00,14.0,5.0,30.35,SE,130,1.0,4.0,68,0.00,,,0.00,,2013-02-01 07:32:00,
2013-02-01 01:42:00,14.0,5.0,30.35,SE,130,1.0,4.0,68,0.00,,,0.00,,2013-02-01 07:42:00,
2013-02-01 01:52:00,15.0,7.0,30.35,SE,130,0.0,4.0,69,0.00,,,0.00,,2013-02-01 07:52:00,
2013-02-01 02:01:00,14.0,6.0,30.34,SE,130,0.0,1.0,69,0.00,,,0.00,,2013-02-01 08:01:00,
2013-02-01 02:11:00,14.0,6.0,30.34,SE,130,0.0,1.0,69,0.00,,,0.00,,2013-02-01 08:11:00,
2013-02-01 02:21:00,14.0,6.0,30.34,SE,130,0.0,1.0,71,0.00,,,0.00,,2013-02-01 08:21:00,
2013-02-01 02:32:00,14.0,7.0,30.33,SE,130,0.0,2.0,73,0.00,,,0.00,,2013-02-01 08:32:00,
2013-02-01 02:42:00,14.0,7.0,30.33,SE,130,0.0,2.0,73,0.00,,,0.00,,2013-02-01 08:42:00,
2013-02-01 02:52:00,14.0,7.0,30.33,SE,130,0.0,2.0,73,0.00,,,0.00,,2013-02-01 08:52:00,
2013-02-01 03:01:00,14.0,7.0,30.33,SE,130,0.0,3.0,74,0.00,,,0.00,,2013-02-01 09:01:00,
2013-02-01 03:11:00,14.0,7.0,30.33,SE,130,0.0,3.0,74,0.00,,,0.00,,2013-02-01 09:11:00,
2013-02-01 03:21:00,14.0,8.0,30.32,SE,130,0.0,2.0,75,0.00,,,0.00,,2013-02-01 09:21:00,
2013-02-01 03:32:00,13.0,7.0,30.32,SE,130,0.0,2.0,75,0.00,,,0.00,,2013-02-01 09:32:00,
2013-02-01 03:41:00,13.0,7.0,30.32,SE,130,0.0,2.0,75,0.00,,,0.00,,2013-02-01 09:41:00,
2013-02-01 03:51:00,14.0,8.0,30.31,SE,130,0.0,1.0,77,0.00,,,0.00,,2013-02-01 09:51:00,
2013-02-01 04:01:00,14.0,8.0,30.31,SE,130,0.0,1.0,76,0.00,,,0.00,,2013-02-01 10:01:00,
2013-02-01 04:11:00,14.0,8.0,30.31,SE,130,0.0,1.0,76,0.00,,,0.00,,2013-02-01 10:11:00,
2013-02-01 04:21:00,14.0,8.0,30.31,SE,130,0.0,2.0,76,0.00,,,0.00,,2013-02-01 10:21:00,
2013-02-01 04:32:00,14.0,8.0,30.31,SE,130,0.0,3.0,77,0.00,,,0.00,,2013-02-01 10:32:00,
2013-02-01 04:42:00,14.0,8.0,30.31,SE,130,0.0,3.0,77,0.00,,,0.00,,2013-02-01 10:42:00,
2013-02-01 04:52:00,14.0,8.0,30.31,SE,130,0.0,3.0,77,0.00,,,0.00,,2013-02-01 10:52:00,
2013-02-01 05:02:00,16.0,11.0,30.29,ESE,103,1.0,4.0,80,0.00,,,0.00,,2013-02-01 11:02:00,
2013-02-01 05:11:00,16.0,11.0,30.29,ESE,103,1.0,4.0,80,0.00,,,0.00,,2013-02-01 11:11:00,
2013-02-01 05:22:00,17.0,12.0,30.29,SSW,198,0.0,2.0,81,0.00,,,0.00,,2013-02-01 11:22:00,
2013-02-01 05:32:00,17.0,11.0,30.28,NE,43,0.0,1.0,78,0.00,,,0.00,,2013-02-01 11:32:00,
2013-02-01 05:42:00,17.0,11.0,30.28,NE,43,0.0,1.0,78,0.00,,,0.00,,2013-02-01 11:42:00,
2013-02-01 05:53:00,17.0,12.0,30.28,NE,43,0.0,1.0,79,0.00,,,0.00,,2013-02-01 11:53:00,
2013-02-01 06:02:00,18.0,13.0,30.28,NE,43,0.0,1.0,80,0.00,,,0.00,,2013-02-01 12:02:00,
2013-02-01 06:12:00,18.0,13.0,30.28,NE,43,0.0,1.0,80,0.00,,,0.00,,2013-02-01 12:12:00,
2013-02-01 06:22:00,18.0,13.0,30.27,NE,43,0.0,2.0,79,0.00,,,0.00,,2013-02-01 12:22:00,
2013-02-01 06:32:00,18.0,13.0,30.27,NE,43,0.0,1.0,79,0.00,,,0.00,,2013-02-01 12:32:00,
2013-02-01 06:42:00,18.0,13.0,30.27,NE,43,0.0,1.0,79,0.00,,,0.00,,2013-02-01 12:42:00,
2013-02-01 06:52:00,18.0,13.0,30.27,NE,43,0.0,2.0,80,0.00,,,0.00,,2013-02-01 12:52:00,
2013-02-01 07:02:00,19.0,14.0,30.27,SW,215,1.0,4.0,82,0.00,,,0.00,,2013-02-01 13:02:00,
2013-02-01 07:11:00,19.0,14.0,30.27,SW,215,1.0,4.0,82,0.00,,,0.00,,2013-02-01 13:11:00,
2013-02-01 07:22:00,21.0,17.0,30.25,SW,215,0.0,2.0,83,0.00,,,0.00,,2013-02-01 13:22:00,
2013-02-01 07:32:00,23.0,19.0,30.25,SW,236,1.0,3.0,84,0.00,,,0.00,,2013-02-01 13:32:00,
2013-02-01 07:42:00,23.0,19.0,30.25,SW,236,1.0,3.0,84,0.00,,,0.00,,2013-02-01 13:42:00,
2013-02-01 07:52:00,25.0,21.0,30.24,WSW,255,2.0,4.0,83,0.00,,,0.00,,2013-02-01 13:52:00,
2013-02-01 08:03:00,25.0,21.0,30.23,WSW,255,0.0,3.0,83,0.00,,,0.00,,2013-02-01 14:03:00,
2013-02-01 08:11:00,25.0,21.0,30.23,WSW,255,0.0,3.0,83,0.00,,,0.00,,2013-02-01 14:11:00,
2013-02-01 08:21:00,25.0,21.0,30.23,WSW,255,1.0,3.0,84,0.00,,,0.00,,2013-02-01 14:21:00,
2013-02-01 08:32:00,25.0,21.0,30.22,WSW,255,0.0,1.0,83,0.00,,,0.00,,2013-02-01 14:32:00,
2013-02-01 08:42:00,25.0,21.0,30.22,WSW,255,0.0,1.0,83,0.00,,,0.00,,2013-02-01 14:42:00,
2013-02-01 08:52:00,26.0,22.0,30.23,WSW,255,0.0,1.0,83,0.00,,,0.00,,2013-02-01 14:52:00,
2013-02-01 09:02:00,26.0,22.0,30.22,SW,222,2.0,5.0,83,0.00,,,0.00,,2013-02-01 15:02:00,
2013-02-01 09:12:00,27.0,22.0,30.22,WSW,238,4.0,7.0,82,0.00,,,0.00,,2013-02-01 15:12:00,
2013-02-01 09:22:00,27.0,22.0,30.22,WSW,238,4.0,7.0,82,0.00,,,0.00,,2013-02-01 15:22:00,
2013-02-01 09:33:00,27.0,22.0,30.22,WSW,238,4.0,7.0,82,0.00,,,0.00,,2013-02-01 15:33:00,
2013-02-01 09:42:00,27.0,22.0,30.22,WSW,238,4.0,7.0,82,0.00,,,0.00,,2013-02-01 15:42:00,
2013-02-01 09:52:00,29.0,23.0,30.22,West,273,3.0,5.0,79,0.00,,,0.00,,2013-02-01 15:52:00,
2013-02-01 10:03:00,30.0,24.0,30.20,WSW,238,5.0,9.0,77,0.00,,,0.00,,2013-02-01 16:03:00,
2013-02-01 10:11:00,31.0,24.0,30.20,WSW,248,6.0,15.0,76,0.00,,,0.00,,2013-02-01 16:11:00,
2013-02-01 10:22:00,31.0,24.0,30.20,WSW,248,6.0,15.0,76,0.00,,,0.00,,2013-02-01 16:22:00,
2013-02-01 10:33:00,31.0,24.0,30.20,WSW,252,7.0,10.0,74,0.00,,,0.00,,2013-02-01 16:33:00,
2013-02-01 10:42:00,32.0,24.0,30.20,West,275,4.0,8.0,73,0.00,,,0.00,,2013-02-01 16:42:00,
2013-02-01 10:52:00,32.0,24.0,30.20,West,275,4.0,8.0,73,0.00,,,0.00,,2013-02-01 16:52:00,
2013-02-01 11:02:00,33.0,25.0,30.19,West,265,5.0,9.0,72,0.00,,,0.00,,2013-02-01 17:02:00,
2013-02-01 11:12:00,33.0,25.0,30.19,West,265,5.0,9.0,72,0.00,,,0.00,,2013-02-01 17:12:00,
2013-02-01 11:22:00,35.0,26.0,30.19,West,279,5.0,9.0,70,0.00,,,0.00,,2013-02-01 17:22:00,
2013-02-01 11:32:00,37.0,27.0,30.18,WNW,294,4.0,9.0,67,0.00,,,0.00,,2013-02-01 17:32:00,
2013-02-01 11:42:00,37.0,27.0,30.18,WNW,294,4.0,9.0,67,0.00,,,0.00,,2013-02-01 17:42:00,
2013-02-01 11:52:00,39.0,27.0,30.17,SW,236,6.0,10.0,63,0.00,,,0.00,,2013-02-01 17:52:00,
2013-02-01 12:03:00,41.0,28.0,30.16,West,265,5.0,10.0,59,0.00,,,0.00,,2013-02-01 18:03:00,
2013-02-01 12:12:00,41.0,28.0,30.16,West,265,5.0,10.0,59,0.00,,,0.00,,2013-02-01 18:12:00,
2013-02-01 12:22:00,43.0,28.0,30.15,SW,216,4.0,10.0,56,0.00,,,0.00,,2013-02-01 18:22:00,
2013-02-01 12:32:00,44.0,28.0,30.14,West,261,3.0,9.0,54,0.00,,,0.00,,2013-02-01 18:32:00,
2013-02-01 12:42:00,44.0,28.0,30.14,West,261,3.0,9.0,54,0.00,,,0.00,,2013-02-01 18:42:00,
2013-02-01 12:52:00,46.0,29.0,30.13,WSW,255,5.0,11.0,51,0.00,,,0.00,,2013-02-01 18:52:00,
2013-02-01 13:02:00,47.0,28.0,30.12,SW,236,6.0,11.0,48,0.00,,,0.00,,2013-02-01 19:02:00,
2013-02-01 13:11:00,47.0,28.0,30.12,SW,236,6.0,11.0,48,0.00,,,0.00,,2013-02-01 19:11:00,
2013-02-01 13:21:00,48.0,29.0,30.11,West,259,7.0,11.0,47,0.00,,,0.00,,2013-02-01 19:21:00,
2013-02-01 13:32:00,48.0,28.0,30.10,WSW,237,4.0,12.0,45,0.00,,,0.00,,2013-02-01 19:32:00,
2013-02-01 13:41:00,48.0,28.0,30.10,WSW,237,4.0,12.0,45,0.00,,,0.00,,2013-02-01 19:41:00,
2013-02-01 13:51:00,49.0,29.0,30.09,West,276,3.0,9.0,46,0.00,,,0.00,,2013-02-01 19:51:00,
2013-02-01 14:02:00,50.0,29.0,30.08,WSW,249,6.0,11.0,44,0.00,,,0.00,,2013-02-01 20:02:00,
2013-02-01 14:11:00,50.0,29.0,30.08,WSW,249,6.0,11.0,44,0.00,,,0.00,,2013-02-01 20:11:00,
2013-02-01 14:21:00,51.0,29.0,30.07,WSW,240,4.0,10.0,43,0.00,,,0.00,,2013-02-01 20:21:00,
2013-02-01 14:32:00,52.0,28.0,30.06,West,279,7.0,14.0,40,0.00,,,0.00,,2013-02-01 20:32:00,
2013-02-01 14:42:00,52.0,28.0,30.06,West,279,7.0,14.0,40,0.00,,,0.00,,2013-02-01 20:42:00,
2013-02-01 14:52:00,52.0,28.0,30.05,NW,320,8.0,11.0,40,0.00,,,0.00,,2013-02-01 20:52:00,
2013-02-01 15:02:00,52.0,28.0,30.05,NNW,338,7.0,13.0,39,0.00,,,0.00,,2013-02-01 21:02:00,
2013-02-01 15:12:00,52.0,28.0,30.05,NNW,338,7.0,13.0,39,0.00,,,0.00,,2013-02-01 21:12:00,
2013-02-01 15:21:00,52.0,27.0,30.05,WNW,291,9.0,15.0,38,0.00,,,0.00,,2013-02-01 21:21:00,
2013-02-01 15:32:00,51.0,27.0,30.05,WNW,296,9.0,15.0,39,0.00,,,0.00,,2013-02-01 21:32:00,
2013-02-01 15:41:00,51.0,27.0,30.05,WNW,296,9.0,15.0,39,0.00,,,0.00,,2013-02-01 21:41:00,
2013-02-01 15:52:00,50.0,27.0,30.05,NW,324,10.0,15.0,41,0.00,,,0.00,,2013-02-01 21:52:00,
2013-02-01 16:02:00,50.0,27.0,30.05,West,278,8.0,12.0,41,0.00,,,0.00,,2013-02-01 22:02:00,
2013-02-01 16:11:00,50.0,27.0,30.05,West,278,8.0,12.0,41,0.00,,,0.00,,2013-02-01 22:11:00,
2013-02-01 16:21:00,49.0,27.0,30.05,WNW,285,8.0,12.0,42,0.00,,,0.00,,2013-02-01 22:21:00,
2013-02-01 16:32:00,49.0,27.0,30.05,NW,306,6.0,10.0,43,0.00,,,0.00,,2013-02-01 22:32:00,
2013-02-01 16:42:00,49.0,27.0,30.05,NW,306,6.0,10.0,43,0.00,,,0.00,,2013-02-01 22:42:00,
2013-02-01 16:51:00,49.0,28.0,30.05,WNW,290,4.0,8.0,44,0.00,,,0.00,,2013-02-01 22:51:00,
2013-02-01 17:01:00,49.0,28.0,30.05,WNW,288,4.0,8.0,44,0.00,,,0.00,,2013-02-01 23:01:00,
2013-02-01 17:11:00,49.0,28.0,30.05,WNW,288,4.0,8.0,44,0.00,,,0.00,,2013-02-01 23:11:00,
2013-02-01 17:21:00,49.0,28.0,30.05,WNW,295,3.0,8.0,44,0.00,,,0.00,,2013-02-01 23:21:00,
2013-02-01 17:32:00,49.0,29.0,30.05,WNW,301,2.0,5.0,45,0.00,,,0.00,,2013-02-01 23:32:00,
2013-02-01 17:41:00,49.0,29.0,30.05,WNW,301,2.0,5.0,45,0.00,,,0.00,,2013-02-01 23:41:00,
2013-02-01 17:52:00,49.0,31.0,30.06,North,5,8.0,13.0,50,0.00,,,0.00,,2013-02-01 23:52:00,
2013-02-01 18:02:00,48.0,31.0,30.06,North,355,4.0,9.0,52,0.00,,,0.00,,2013-02-02 00:02:00,
2013-02-01 18:11:00,48.0,31.0,30.06,North,355,4.0,9.0,52,0.00,,,0.00,,2013-02-02 00:11:00,
2013-02-01 18:21:00,47.0,31.0,30.06,North,360,3.0,8.0,53,0.00,,,0.00,,2013-02-02 00:21:00,
2013-02-01 18:32:00,47.0,30.0,30.06,NNW,344,2.0,6.0,52,0.00,,,0.00,,2013-02-02 00:32:00,
2013-02-01 18:42:00,47.0,30.0,30.06,NNW,344,2.0,6.0,52,0.00,,,0.00,,2013-02-02 00:42:00,
2013-02-01 18:52:00,47.0,30.0,30.07,North,5,5.0,11.0,52,0.00,,,0.00,,2013-02-02 00:52:00,
2013-02-01 19:02:00,46.0,29.0,30.07,North,355,5.0,9.0,52,0.00,,,0.00,,2013-02-02 01:02:00,
2013-02-01 19:11:00,46.0,29.0,30.07,North,355,5.0,9.0,52,0.00,,,0.00,,2013-02-02 01:11:00,
2013-02-01 19:21:00,46.0,30.0,30.08,NNW,348,4.0,9.0,53,0.00,,,0.00,,2013-02-02 01:21:00,
2013-02-01 19:32:00,45.0,30.0,30.08,NE,36,4.0,10.0,55,0.00,,,0.00,,2013-02-02 01:32:00,
2013-02-01 19:41:00,45.0,30.0,30.08,NE,36,4.0,10.0,55,0.00,,,0.00,,2013-02-02 01:41:00,
2013-02-01 19:52:00,44.0,30.0,30.08,NNE,18,3.0,6.0,57,0.00,,,0.00,,2013-02-02 01:52:00,
2013-02-01 20:01:00,42.0,29.0,30.09,NW,304,1.0,5.0,60,0.00,,,0.00,,2013-02-02 02:01:00,
2013-02-01 20:11:00,42.0,29.0,30.09,NW,304,1.0,5.0,60,0.00,,,0.00,,2013-02-02 02:11:00,
2013-02-01 20:21:00,41.0,29.0,30.10,WNW,300,2.0,5.0,62,0.00,,,0.00,,2013-02-02 02:21:00,
2013-02-01 20:32:00,41.0,30.0,30.10,NW,308,0.0,3.0,64,0.00,,,0.00,,2013-02-02 02:32:00,
2013-02-01 20:42:00,41.0,30.0,30.10,NW,308,0.0,3.0,64,0.00,,,0.00,,2013-02-02 02:42:00,
2013-02-01 20:52:00,42.0,30.0,30.11,WNW,300,4.0,9.0,63,0.00,,,0.00,,2013-02-02 02:52:00,
2013-02-01 21:02:00,42.0,30.0,30.11,North,350,2.0,6.0,63,0.00,,,0.00,,2013-02-02 03:02:00,
2013-02-01 21:11:00,42.0,30.0,30.11,North,350,2.0,6.0,63,0.00,,,0.00,,2013-02-02 03:11:00,
2013-02-01 21:21:00,42.0,31.0,30.11,NNW,344,2.0,9.0,64,0.00,,,0.00,,2013-02-02 03:21:00,
2013-02-01 21:32:00,41.0,31.0,30.12,North,11,3.0,7.0,66,0.00,,,0.00,,2013-02-02 03:32:00,
2013-02-01 21:42:00,40.0,30.0,30.12,West,269,1.0,5.0,68,0.00,,,0.00,,2013-02-02 03:42:00,
2013-02-01 21:52:00,40.0,30.0,30.12,West,269,1.0,5.0,68,0.00,,,0.00,,2013-02-02 03:52:00,
2013-02-01 22:01:00,40.0,31.0,30.13,North,360,2.0,4.0,70,0.00,,,0.00,,2013-02-02 04:01:00,
2013-02-01 22:11:00,40.0,31.0,30.13,North,360,2.0,4.0,70,0.00,,,0.00,,2013-02-02 04:11:00,
2013-02-01 22:21:00,40.0,32.0,30.14,North,355,2.0,6.0,72,0.00,,,0.00,,2013-02-02 04:21:00,
2013-02-01 22:32:00,39.0,31.0,30.14,NNW,348,1.0,3.0,73,0.00,,,0.00,,2013-02-02 04:32:00,
2013-02-01 22:42:00,39.0,31.0,30.14,NNW,348,1.0,3.0,73,0.00,,,0.00,,2013-02-02 04:42:00,
2013-02-01 22:51:00,38.0,31.0,30.15,WNW,302,1.0,5.0,75,0.00,,,0.00,,2013-02-02 04:51:00,
2013-02-01 23:03:00,38.0,31.0,30.15,WNW,297,2.0,7.0,76,0.00,,,0.00,,2013-02-02 05:03:00,
2013-02-01 23:12:00,38.0,31.0,30.15,WNW,297,2.0,7.0,76,0.00,,,0.00,,2013-02-02 05:12:00,
2013-02-01 23:22:00,38.0,31.0,30.15,WNW,299,2.0,6.0,76,0.00,,,0.00,,2013-02-02 05:22:00,
2013-02-01 23:33:00,36.0,30.0,30.16,NNW,344,1.0,5.0,78,0.00,,,0.00,,2013-02-02 05:33:00,
2013-02-01 23:41:00,36.0,30.0,30.16,NNW,344,1.0,5.0,78,0.00,,,0.00,,2013-02-02 05:41:00,
2013-02-01 23:52:00,35.0,29.0,30.16,WNW,300,0.0,4.0,77,0.00,,,0.00,,2013-02-02 05:52:00,